sensor_id;sensor_type;location;lat;lon;timestamp;P1;durP1;ratioP1;P2;durP2;ratioP2
22476;SDS011;11405;51.698;-0.292;2022-07-06T00:00:06;1.27;;;0.70;;
22476;SDS011;11405;51.698;-0.292;2022-07-06T00:02:32;3.90;;;0.70;;
22476;SDS011;11405;51.698;-0.292;2022-07-06T00:04:58;2.58;;;0.57;;
22476;SDS011;11405;51.698;-0.292;2022-07-06T00:07:24;2.33;;;0.50;;
22476;SDS011;11405;51.698;-0.292;2022-07-06T00:09:50;2.47;;;0.85;;
22476;SDS011;11405;51.698;-0.292;2022-07-06T00:12:16;2.30;;;0.77;;
22476;SDS011;11405;51.698;-0.292;2022-07-06T00:14:45;0.77;;;0.77;;
22476;SDS011;11405;51.698;-0.292;2022-07-06T00:17:11;1.67;;;0.65;;
22476;SDS011;11405;51.698;-0.292;2022-07-06T00:19:38;2.25;;;0.80;;
22476;SDS011;11405;51.698;-0.292;2022-07-06T00:22:04;2.83;;;0.73;;
22476;SDS011;11405;51.698;-0.292;2022-07-06T00:24:30;2.55;;;0.73;;
22476;SDS011;11405;51.698;-0.292;2022-07-06T00:26:56;1.92;;;1.00;;
22476;SDS011;11405;51.698;-0.292;2022-07-06T00:29:22;2.90;;;1.25;;
22476;SDS011;11405;51.698;-0.292;2022-07-06T00:31:48;1.70;;;0.82;;
22476;SDS011;11405;51.698;-0.292;2022-07-06T00:34:14;2.35;;;1.00;;
22476;SDS011;11405;51.698;-0.292;2022-07-06T00:36:40;2.33;;;0.82;;
22476;SDS011;11405;51.698;-0.292;2022-07-06T00:39:06;3.08;;;1.05;;
22476;SDS011;11405;51.698;-0.292;2022-07-06T00:41:32;5.20;;;0.90;;
22476;SDS011;11405;51.698;-0.292;2022-07-06T00:43:58;4.47;;;1.17;;
22476;SDS011;11405;51.698;-0.292;2022-07-06T00:46:28;1.90;;;0.80;;
22476;SDS011;11405;51.698;-0.292;2022-07-06T00:48:56;2.65;;;0.90;;
22476;SDS011;11405;51.698;-0.292;2022-07-06T00:51:23;2.72;;;1.00;;
22476;SDS011;11405;51.698;-0.292;2022-07-06T00:53:51;5.03;;;1.17;;
22476;SDS011;11405;51.698;-0.292;2022-07-06T00:56:17;5.63;;;1.33;;
22476;SDS011;11405;51.698;-0.292;2022-07-06T00:58:44;1.20;;;0.88;;
22476;SDS011;11405;51.698;-0.292;2022-07-06T01:01:10;1.88;;;0.95;;
22476;SDS011;11405;51.698;-0.292;2022-07-06T01:03:36;3.50;;;1.40;;
22476;SDS011;11405;51.698;-0.292;2022-07-06T01:06:02;4.63;;;1.33;;
22476;SDS011;11405;51.698;-0.292;2022-07-06T01:08:28;6.97;;;1.42;;
22476;SDS011;11405;51.698;-0.292;2022-07-06T01:10:55;2.88;;;1.10;;
22476;SDS011;11405;51.698;-0.292;2022-07-06T01:13:20;4.60;;;1.17;;
22476;SDS011;11405;51.698;-0.292;2022-07-06T01:15:47;5.55;;;1.38;;
22476;SDS011;11405;51.698;-0.292;2022-07-06T01:18:13;4.78;;;1.40;;
22476;SDS011;11405;51.698;-0.292;2022-07-06T01:20:39;7.55;;;1.63;;
22476;SDS011;11405;51.698;-0.292;2022-07-06T01:23:05;4.45;;;1.55;;
22476;SDS011;11405;51.698;-0.292;2022-07-06T01:25:31;4.40;;;1.15;;
22476;SDS011;11405;51.698;-0.292;2022-07-06T01:27:57;3.28;;;1.40;;
22476;SDS011;11405;51.698;-0.292;2022-07-06T01:30:23;4.45;;;1.17;;
22476;SDS011;11405;51.698;-0.292;2022-07-06T01:32:50;5.23;;;1.43;;
22476;SDS011;11405;51.698;-0.292;2022-07-06T01:35:16;4.70;;;1.42;;
22476;SDS011;11405;51.698;-0.292;2022-07-06T01:37:42;2.70;;;1.10;;
22476;SDS011;11405;51.698;-0.292;2022-07-06T01:40:09;5.38;;;1.13;;
22476;SDS011;11405;51.698;-0.292;2022-07-06T01:45:02;7.47;;;1.08;;
22476;SDS011;11405;51.698;-0.292;2022-07-06T01:47:31;3.08;;;0.82;;
22476;SDS011;11405;51.698;-0.292;2022-07-06T01:49:58;2.00;;;1.05;;
22476;SDS011;11405;51.698;-0.292;2022-07-06T01:52:28;3.33;;;1.52;;
22476;SDS011;11405;51.698;-0.292;2022-07-06T01:54:55;3.45;;;0.85;;
22476;SDS011;11405;51.698;-0.292;2022-07-06T01:57:21;3.63;;;0.90;;
22476;SDS011;11405;51.698;-0.292;2022-07-06T01:59:47;3.40;;;1.23;;
22476;SDS011;11405;51.698;-0.292;2022-07-06T02:02:13;2.08;;;0.88;;
22476;SDS011;11405;51.698;-0.292;2022-07-06T02:04:40;1.95;;;0.85;;
22476;SDS011;11405;51.698;-0.292;2022-07-06T02:07:06;2.50;;;0.90;;
22476;SDS011;11405;51.698;-0.292;2022-07-06T02:09:32;6.70;;;1.50;;
22476;SDS011;11405;51.698;-0.292;2022-07-06T02:11:58;3.03;;;0.90;;
22476;SDS011;11405;51.698;-0.292;2022-07-06T02:14:24;4.03;;;0.80;;
22476;SDS011;11405;51.698;-0.292;2022-07-06T02:16:50;3.07;;;1.10;;
22476;SDS011;11405;51.698;-0.292;2022-07-06T02:19:16;1.53;;;0.87;;
22476;SDS011;11405;51.698;-0.292;2022-07-06T02:21:42;4.57;;;0.90;;
22476;SDS011;11405;51.698;-0.292;2022-07-06T02:24:08;4.85;;;1.55;;
22476;SDS011;11405;51.698;-0.292;2022-07-06T02:26:34;7.93;;;1.50;;
22476;SDS011;11405;51.698;-0.292;2022-07-06T02:29:00;4.22;;;1.20;;
22476;SDS011;11405;51.698;-0.292;2022-07-06T02:31:26;6.50;;;1.23;;
22476;SDS011;11405;51.698;-0.292;2022-07-06T02:33:52;10.32;;;1.30;;
22476;SDS011;11405;51.698;-0.292;2022-07-06T02:36:18;5.95;;;1.33;;
22476;SDS011;11405;51.698;-0.292;2022-07-06T02:38:44;2.38;;;0.90;;
22476;SDS011;11405;51.698;-0.292;2022-07-06T02:41:10;6.88;;;1.10;;
22476;SDS011;11405;51.698;-0.292;2022-07-06T02:43:37;5.25;;;0.85;;
22476;SDS011;11405;51.698;-0.292;2022-07-06T02:46:03;5.45;;;0.88;;
22476;SDS011;11405;51.698;-0.292;2022-07-06T02:48:29;8.18;;;1.17;;
22476;SDS011;11405;51.698;-0.292;2022-07-06T02:50:55;4.90;;;1.17;;
22476;SDS011;11405;51.698;-0.292;2022-07-06T02:53:23;1.75;;;1.00;;
22476;SDS011;11405;51.698;-0.292;2022-07-06T02:55:49;8.13;;;1.42;;
22476;SDS011;11405;51.698;-0.292;2022-07-06T02:58:15;3.83;;;1.30;;
22476;SDS011;11405;51.698;-0.292;2022-07-06T03:00:41;3.47;;;1.27;;
22476;SDS011;11405;51.698;-0.292;2022-07-06T03:03:07;5.88;;;0.90;;
22476;SDS011;11405;51.698;-0.292;2022-07-06T03:05:35;5.28;;;1.20;;
22476;SDS011;11405;51.698;-0.292;2022-07-06T03:08:01;4.90;;;1.30;;
22476;SDS011;11405;51.698;-0.292;2022-07-06T03:10:27;3.80;;;1.02;;
22476;SDS011;11405;51.698;-0.292;2022-07-06T03:12:53;2.63;;;1.00;;
22476;SDS011;11405;51.698;-0.292;2022-07-06T03:15:19;4.35;;;1.00;;
22476;SDS011;11405;51.698;-0.292;2022-07-06T03:17:45;4.32;;;1.15;;
22476;SDS011;11405;51.698;-0.292;2022-07-06T03:20:11;4.70;;;1.08;;
22476;SDS011;11405;51.698;-0.292;2022-07-06T03:22:37;4.93;;;1.25;;
22476;SDS011;11405;51.698;-0.292;2022-07-06T03:25:03;3.05;;;1.38;;
22476;SDS011;11405;51.698;-0.292;2022-07-06T03:27:29;3.47;;;0.95;;
22476;SDS011;11405;51.698;-0.292;2022-07-06T03:29:55;5.67;;;1.00;;
22476;SDS011;11405;51.698;-0.292;2022-07-06T03:32:21;4.60;;;1.08;;
22476;SDS011;11405;51.698;-0.292;2022-07-06T03:34:47;4.07;;;1.20;;
22476;SDS011;11405;51.698;-0.292;2022-07-06T03:37:13;2.95;;;1.05;;
22476;SDS011;11405;51.698;-0.292;2022-07-06T03:39:39;9.52;;;1.42;;
22476;SDS011;11405;51.698;-0.292;2022-07-06T03:42:05;6.15;;;1.20;;
22476;SDS011;11405;51.698;-0.292;2022-07-06T03:44:31;2.25;;;0.80;;
22476;SDS011;11405;51.698;-0.292;2022-07-06T03:46:57;6.93;;;1.52;;
22476;SDS011;11405;51.698;-0.292;2022-07-06T03:49:23;4.10;;;1.45;;
22476;SDS011;11405;51.698;-0.292;2022-07-06T03:51:51;2.75;;;0.90;;
22476;SDS011;11405;51.698;-0.292;2022-07-06T03:54:17;2.80;;;1.02;;
22476;SDS011;11405;51.698;-0.292;2022-07-06T03:56:43;8.63;;;1.10;;
22476;SDS011;11405;51.698;-0.292;2022-07-06T03:59:09;4.57;;;1.00;;
22476;SDS011;11405;51.698;-0.292;2022-07-06T04:01:35;4.85;;;0.75;;
22476;SDS011;11405;51.698;-0.292;2022-07-06T04:04:01;2.75;;;0.80;;
22476;SDS011;11405;51.698;-0.292;2022-07-06T04:06:28;1.45;;;0.80;;
22476;SDS011;11405;51.698;-0.292;2022-07-06T04:08:55;5.07;;;1.65;;
22476;SDS011;11405;51.698;-0.292;2022-07-06T04:11:21;3.63;;;0.90;;
22476;SDS011;11405;51.698;-0.292;2022-07-06T04:13:47;2.55;;;1.25;;
22476;SDS011;11405;51.698;-0.292;2022-07-06T04:16:13;7.70;;;1.13;;
22476;SDS011;11405;51.698;-0.292;2022-07-06T04:18:39;4.05;;;1.10;;
22476;SDS011;11405;51.698;-0.292;2022-07-06T04:21:05;3.22;;;0.98;;
22476;SDS011;11405;51.698;-0.292;2022-07-06T04:23:31;3.35;;;0.90;;
22476;SDS011;11405;51.698;-0.292;2022-07-06T04:25:58;6.72;;;0.85;;
22476;SDS011;11405;51.698;-0.292;2022-07-06T04:28:24;2.40;;;0.95;;
22476;SDS011;11405;51.698;-0.292;2022-07-06T04:30:50;3.03;;;1.33;;
22476;SDS011;11405;51.698;-0.292;2022-07-06T04:33:17;2.30;;;1.20;;
22476;SDS011;11405;51.698;-0.292;2022-07-06T04:35:43;2.85;;;0.70;;
22476;SDS011;11405;51.698;-0.292;2022-07-06T04:38:09;9.68;;;1.38;;
22476;SDS011;11405;51.698;-0.292;2022-07-06T04:40:35;8.18;;;1.30;;
22476;SDS011;11405;51.698;-0.292;2022-07-06T04:43:01;2.25;;;0.82;;
22476;SDS011;11405;51.698;-0.292;2022-07-06T04:45:27;2.97;;;0.73;;
22476;SDS011;11405;51.698;-0.292;2022-07-06T04:47:53;2.17;;;1.00;;
22476;SDS011;11405;51.698;-0.292;2022-07-06T04:50:19;4.78;;;1.02;;
22476;SDS011;11405;51.698;-0.292;2022-07-06T04:52:45;5.05;;;1.40;;
22476;SDS011;11405;51.698;-0.292;2022-07-06T04:55:11;1.65;;;1.02;;
22476;SDS011;11405;51.698;-0.292;2022-07-06T04:57:39;4.07;;;1.55;;
22476;SDS011;11405;51.698;-0.292;2022-07-06T05:00:05;3.55;;;1.00;;
22476;SDS011;11405;51.698;-0.292;2022-07-06T05:02:32;2.53;;;0.93;;
22476;SDS011;11405;51.698;-0.292;2022-07-06T05:04:58;3.80;;;0.80;;
22476;SDS011;11405;51.698;-0.292;2022-07-06T05:07:25;6.35;;;0.95;;
22476;SDS011;11405;51.698;-0.292;2022-07-06T05:09:56;4.25;;;0.90;;
22476;SDS011;11405;51.698;-0.292;2022-07-06T05:12:22;2.70;;;0.82;;
22476;SDS011;11405;51.698;-0.292;2022-07-06T05:14:48;5.68;;;0.93;;
22476;SDS011;11405;51.698;-0.292;2022-07-06T05:17:14;2.88;;;0.98;;
22476;SDS011;11405;51.698;-0.292;2022-07-06T05:19:40;1.98;;;0.80;;
22476;SDS011;11405;51.698;-0.292;2022-07-06T05:22:06;4.10;;;1.02;;
22476;SDS011;11405;51.698;-0.292;2022-07-06T05:24:32;3.70;;;0.90;;
22476;SDS011;11405;51.698;-0.292;2022-07-06T05:26:58;3.13;;;1.05;;
22476;SDS011;11405;51.698;-0.292;2022-07-06T05:29:24;2.05;;;0.80;;
22476;SDS011;11405;51.698;-0.292;2022-07-06T05:31:50;4.78;;;1.08;;
22476;SDS011;11405;51.698;-0.292;2022-07-06T05:34:16;4.53;;;1.00;;
22476;SDS011;11405;51.698;-0.292;2022-07-06T05:36:42;3.45;;;0.85;;
22476;SDS011;11405;51.698;-0.292;2022-07-06T05:39:09;3.03;;;0.75;;
22476;SDS011;11405;51.698;-0.292;2022-07-06T05:41:35;2.33;;;1.00;;
22476;SDS011;11405;51.698;-0.292;2022-07-06T05:44:01;5.20;;;1.10;;
22476;SDS011;11405;51.698;-0.292;2022-07-06T05:46:27;6.63;;;1.05;;
22476;SDS011;11405;51.698;-0.292;2022-07-06T05:48:53;1.80;;;0.73;;
22476;SDS011;11405;51.698;-0.292;2022-07-06T05:51:38;4.00;;;0.68;;
22476;SDS011;11405;51.698;-0.292;2022-07-06T05:54:03;6.03;;;0.80;;
22476;SDS011;11405;51.698;-0.292;2022-07-06T05:56:30;5.05;;;1.33;;
22476;SDS011;11405;51.698;-0.292;2022-07-06T05:58:56;3.13;;;0.93;;
22476;SDS011;11405;51.698;-0.292;2022-07-06T06:01:22;4.57;;;0.93;;
22476;SDS011;11405;51.698;-0.292;2022-07-06T06:03:48;3.60;;;0.93;;
22476;SDS011;11405;51.698;-0.292;2022-07-06T06:06:14;5.70;;;0.95;;
22476;SDS011;11405;51.698;-0.292;2022-07-06T06:08:40;2.50;;;0.80;;
22476;SDS011;11405;51.698;-0.292;2022-07-06T06:11:06;7.32;;;0.88;;
22476;SDS011;11405;51.698;-0.292;2022-07-06T06:13:32;3.15;;;0.90;;
22476;SDS011;11405;51.698;-0.292;2022-07-06T06:15:58;1.33;;;0.80;;
22476;SDS011;11405;51.698;-0.292;2022-07-06T06:18:24;4.23;;;0.90;;
22476;SDS011;11405;51.698;-0.292;2022-07-06T06:20:50;2.92;;;0.80;;
22476;SDS011;11405;51.698;-0.292;2022-07-06T06:23:16;3.55;;;0.90;;
22476;SDS011;11405;51.698;-0.292;2022-07-06T06:25:42;3.60;;;0.80;;
22476;SDS011;11405;51.698;-0.292;2022-07-06T06:28:09;7.05;;;1.13;;
22476;SDS011;11405;51.698;-0.292;2022-07-06T06:30:35;4.75;;;0.90;;
22476;SDS011;11405;51.698;-0.292;2022-07-06T06:33:09;6.20;;;1.60;;
22476;SDS011;11405;51.698;-0.292;2022-07-06T06:35:38;3.55;;;1.10;;
22476;SDS011;11405;51.698;-0.292;2022-07-06T06:40:30;6.68;;;0.82;;
22476;SDS011;11405;51.698;-0.292;2022-07-06T06:42:56;3.90;;;0.90;;
22476;SDS011;11405;51.698;-0.292;2022-07-06T06:45:22;2.88;;;1.17;;
22476;SDS011;11405;51.698;-0.292;2022-07-06T06:47:48;4.65;;;0.70;;
22476;SDS011;11405;51.698;-0.292;2022-07-06T06:50:14;1.77;;;0.55;;
22476;SDS011;11405;51.698;-0.292;2022-07-06T06:52:41;3.90;;;0.73;;
22476;SDS011;11405;51.698;-0.292;2022-07-06T06:55:07;2.67;;;0.80;;
22476;SDS011;11405;51.698;-0.292;2022-07-06T06:57:33;2.92;;;0.90;;
22476;SDS011;11405;51.698;-0.292;2022-07-06T06:59:59;1.75;;;0.80;;
22476;SDS011;11405;51.698;-0.292;2022-07-06T07:02:26;2.35;;;0.70;;
22476;SDS011;11405;51.698;-0.292;2022-07-06T07:04:52;4.35;;;0.85;;
22476;SDS011;11405;51.698;-0.292;2022-07-06T07:07:18;2.70;;;0.70;;
22476;SDS011;11405;51.698;-0.292;2022-07-06T07:09:44;1.27;;;0.70;;
22476;SDS011;11405;51.698;-0.292;2022-07-06T07:12:10;6.78;;;0.98;;
22476;SDS011;11405;51.698;-0.292;2022-07-06T07:14:37;1.17;;;0.85;;
22476;SDS011;11405;51.698;-0.292;2022-07-06T07:17:03;2.47;;;0.63;;
22476;SDS011;11405;51.698;-0.292;2022-07-06T07:19:29;3.38;;;0.80;;
22476;SDS011;11405;51.698;-0.292;2022-07-06T07:21:55;1.33;;;0.82;;
22476;SDS011;11405;51.698;-0.292;2022-07-06T07:24:21;3.33;;;0.50;;
22476;SDS011;11405;51.698;-0.292;2022-07-06T07:26:47;4.40;;;0.70;;
22476;SDS011;11405;51.698;-0.292;2022-07-06T07:29:13;0.82;;;0.57;;
22476;SDS011;11405;51.698;-0.292;2022-07-06T07:31:39;2.83;;;0.70;;
22476;SDS011;11405;51.698;-0.292;2022-07-06T07:34:05;1.92;;;0.63;;
22476;SDS011;11405;51.698;-0.292;2022-07-06T07:36:31;0.52;;;0.43;;
22476;SDS011;11405;51.698;-0.292;2022-07-06T07:38:57;0.90;;;0.52;;
22476;SDS011;11405;51.698;-0.292;2022-07-06T07:41:23;0.65;;;0.47;;
22476;SDS011;11405;51.698;-0.292;2022-07-06T07:43:49;1.77;;;0.77;;
22476;SDS011;11405;51.698;-0.292;2022-07-06T07:46:15;1.23;;;0.60;;
22476;SDS011;11405;51.698;-0.292;2022-07-06T07:48:41;0.77;;;0.60;;
22476;SDS011;11405;51.698;-0.292;2022-07-06T07:51:07;1.05;;;0.50;;
22476;SDS011;11405;51.698;-0.292;2022-07-06T07:53:33;1.63;;;0.77;;
22476;SDS011;11405;51.698;-0.292;2022-07-06T07:55:59;2.03;;;0.60;;
22476;SDS011;11405;51.698;-0.292;2022-07-06T07:58:25;2.78;;;0.50;;
22476;SDS011;11405;51.698;-0.292;2022-07-06T08:00:52;4.35;;;0.80;;
22476;SDS011;11405;51.698;-0.292;2022-07-06T08:03:18;2.28;;;0.68;;
22476;SDS011;11405;51.698;-0.292;2022-07-06T08:05:44;1.48;;;0.50;;
22476;SDS011;11405;51.698;-0.292;2022-07-06T08:08:12;1.13;;;0.80;;
22476;SDS011;11405;51.698;-0.292;2022-07-06T08:10:38;2.47;;;1.17;;
22476;SDS011;11405;51.698;-0.292;2022-07-06T08:13:04;3.72;;;0.60;;
22476;SDS011;11405;51.698;-0.292;2022-07-06T08:15:32;4.20;;;0.70;;
22476;SDS011;11405;51.698;-0.292;2022-07-06T08:17:58;2.33;;;0.47;;
22476;SDS011;11405;51.698;-0.292;2022-07-06T08:20:24;0.82;;;0.55;;
22476;SDS011;11405;51.698;-0.292;2022-07-06T08:22:50;0.95;;;0.30;;
22476;SDS011;11405;51.698;-0.292;2022-07-06T08:25:16;1.77;;;0.70;;
22476;SDS011;11405;51.698;-0.292;2022-07-06T08:27:42;1.52;;;0.65;;
22476;SDS011;11405;51.698;-0.292;2022-07-06T08:30:08;1.27;;;0.50;;
22476;SDS011;11405;51.698;-0.292;2022-07-06T08:32:36;7.95;;;0.60;;
22476;SDS011;11405;51.698;-0.292;2022-07-06T08:35:03;8.00;;;0.70;;
22476;SDS011;11405;51.698;-0.292;2022-07-06T08:37:29;0.65;;;0.30;;
22476;SDS011;11405;51.698;-0.292;2022-07-06T08:39:55;1.67;;;0.73;;
22476;SDS011;11405;51.698;-0.292;2022-07-06T08:42:21;0.73;;;0.50;;
22476;SDS011;11405;51.698;-0.292;2022-07-06T08:44:50;1.05;;;0.57;;
22476;SDS011;11405;51.698;-0.292;2022-07-06T08:47:18;1.42;;;0.60;;
22476;SDS011;11405;51.698;-0.292;2022-07-06T08:49:44;1.63;;;0.50;;
22476;SDS011;11405;51.698;-0.292;2022-07-06T08:52:10;2.72;;;0.70;;
22476;SDS011;11405;51.698;-0.292;2022-07-06T08:54:37;2.05;;;0.57;;
22476;SDS011;11405;51.698;-0.292;2022-07-06T08:57:04;0.77;;;0.40;;
22476;SDS011;11405;51.698;-0.292;2022-07-06T08:59:30;0.73;;;0.60;;
22476;SDS011;11405;51.698;-0.292;2022-07-06T09:01:56;3.40;;;0.60;;
22476;SDS011;11405;51.698;-0.292;2022-07-06T09:04:25;0.52;;;0.50;;
22476;SDS011;11405;51.698;-0.292;2022-07-06T09:06:51;0.55;;;0.55;;
22476;SDS011;11405;51.698;-0.292;2022-07-06T09:09:22;1.23;;;0.65;;
22476;SDS011;11405;51.698;-0.292;2022-07-06T09:11:49;1.58;;;0.50;;
22476;SDS011;11405;51.698;-0.292;2022-07-06T09:14:16;1.02;;;0.75;;
22476;SDS011;11405;51.698;-0.292;2022-07-06T09:16:43;2.75;;;0.52;;
22476;SDS011;11405;51.698;-0.292;2022-07-06T09:19:11;2.33;;;0.30;;
22476;SDS011;11405;51.698;-0.292;2022-07-06T09:21:38;2.92;;;0.55;;
22476;SDS011;11405;51.698;-0.292;2022-07-06T09:24:11;2.28;;;0.38;;
22476;SDS011;11405;51.698;-0.292;2022-07-06T09:26:38;1.45;;;0.50;;
22476;SDS011;11405;51.698;-0.292;2022-07-06T09:29:05;0.38;;;0.38;;
22476;SDS011;11405;51.698;-0.292;2022-07-06T09:31:31;0.98;;;0.30;;
22476;SDS011;11405;51.698;-0.292;2022-07-06T09:33:58;0.40;;;0.30;;
22476;SDS011;11405;51.698;-0.292;2022-07-06T09:36:36;2.50;;;0.30;;
22476;SDS011;11405;51.698;-0.292;2022-07-06T09:39:22;0.47;;;0.35;;
22476;SDS011;11405;51.698;-0.292;2022-07-06T09:41:56;1.05;;;0.32;;
22476;SDS011;11405;51.698;-0.292;2022-07-06T09:46:49;0.40;;;0.30;;
22476;SDS011;11405;51.698;-0.292;2022-07-06T09:49:18;3.90;;;0.40;;
22476;SDS011;11405;51.698;-0.292;2022-07-06T09:51:46;0.45;;;0.30;;
22476;SDS011;11405;51.698;-0.292;2022-07-06T09:54:12;0.40;;;0.25;;
22476;SDS011;11405;51.698;-0.292;2022-07-06T09:56:39;0.47;;;0.30;;
22476;SDS011;11405;51.698;-0.292;2022-07-06T10:01:31;5.13;;;0.45;;
22476;SDS011;11405;51.698;-0.292;2022-07-06T10:03:57;2.10;;;0.20;;
22476;SDS011;11405;51.698;-0.292;2022-07-06T10:06:24;0.20;;;0.20;;
22476;SDS011;11405;51.698;-0.292;2022-07-06T10:08:50;3.55;;;0.65;;
22476;SDS011;11405;51.698;-0.292;2022-07-06T10:11:16;4.57;;;0.25;;
22476;SDS011;11405;51.698;-0.292;2022-07-06T10:13:43;1.85;;;0.20;;
22476;SDS011;11405;51.698;-0.292;2022-07-06T10:16:10;0.40;;;0.15;;
22476;SDS011;11405;51.698;-0.292;2022-07-06T10:18:37;0.65;;;0.30;;
22476;SDS011;11405;51.698;-0.292;2022-07-06T10:21:03;0.88;;;0.20;;
22476;SDS011;11405;51.698;-0.292;2022-07-06T10:23:29;0.10;;;0.10;;
22476;SDS011;11405;51.698;-0.292;2022-07-06T10:25:56;2.92;;;0.20;;
22476;SDS011;11405;51.698;-0.292;2022-07-06T10:28:23;0.63;;;0.20;;
22476;SDS011;11405;51.698;-0.292;2022-07-06T10:30:49;1.45;;;0.20;;
22476;SDS011;11405;51.698;-0.292;2022-07-06T10:33:16;0.55;;;0.30;;
22476;SDS011;11405;51.698;-0.292;2022-07-06T10:38:09;0.20;;;0.20;;
22476;SDS011;11405;51.698;-0.292;2022-07-06T10:40:36;0.68;;;0.10;;
22476;SDS011;11405;51.698;-0.292;2022-07-06T10:43:21;1.20;;;0.30;;
22476;SDS011;11405;51.698;-0.292;2022-07-06T10:53:15;5.57;;;0.20;;
22476;SDS011;11405;51.698;-0.292;2022-07-06T10:55:44;1.63;;;0.20;;
22476;SDS011;11405;51.698;-0.292;2022-07-06T10:58:12;1.13;;;0.22;;
22476;SDS011;11405;51.698;-0.292;2022-07-06T11:00:50;1.10;;;0.40;;
22476;SDS011;11405;51.698;-0.292;2022-07-06T11:03:36;3.00;;;0.28;;
22476;SDS011;11405;51.698;-0.292;2022-07-06T11:06:10;0.22;;;0.20;;
22476;SDS011;11405;51.698;-0.292;2022-07-06T11:09:10;1.55;;;0.30;;
22476;SDS011;11405;51.698;-0.292;2022-07-06T11:14:03;1.25;;;0.20;;
22476;SDS011;11405;51.698;-0.292;2022-07-06T11:16:31;0.35;;;0.30;;
22476;SDS011;11405;51.698;-0.292;2022-07-06T11:21:38;0.70;;;0.20;;
22476;SDS011;11405;51.698;-0.292;2022-07-06T11:24:05;2.65;;;0.35;;
22476;SDS011;11405;51.698;-0.292;2022-07-06T11:26:31;6.22;;;0.50;;
22476;SDS011;11405;51.698;-0.292;2022-07-06T11:28:58;1.02;;;0.28;;
22476;SDS011;11405;51.698;-0.292;2022-07-06T11:31:27;1.30;;;0.32;;
22476;SDS011;11405;51.698;-0.292;2022-07-06T11:33:53;1.25;;;0.68;;
22476;SDS011;11405;51.698;-0.292;2022-07-06T11:36:20;0.20;;;0.20;;
22476;SDS011;11405;51.698;-0.292;2022-07-06T11:38:47;0.65;;;0.22;;
22476;SDS011;11405;51.698;-0.292;2022-07-06T11:41:14;0.47;;;0.32;;
22476;SDS011;11405;51.698;-0.292;2022-07-06T11:46:21;2.30;;;0.32;;
22476;SDS011;11405;51.698;-0.292;2022-07-06T11:48:50;4.22;;;0.50;;
22476;SDS011;11405;51.698;-0.292;2022-07-06T11:51:17;0.77;;;0.43;;
22476;SDS011;11405;51.698;-0.292;2022-07-06T11:53:47;0.45;;;0.40;;
22476;SDS011;11405;51.698;-0.292;2022-07-06T11:56:16;0.60;;;0.20;;
22476;SDS011;11405;51.698;-0.292;2022-07-06T11:58:46;3.53;;;0.40;;
22476;SDS011;11405;51.698;-0.292;2022-07-06T12:01:12;0.88;;;0.55;;
22476;SDS011;11405;51.698;-0.292;2022-07-06T12:03:39;2.67;;;0.47;;
22476;SDS011;11405;51.698;-0.292;2022-07-06T12:06:06;0.32;;;0.28;;
22476;SDS011;11405;51.698;-0.292;2022-07-06T12:08:40;2.75;;;0.68;;
22476;SDS011;11405;51.698;-0.292;2022-07-06T12:11:06;2.20;;;0.30;;
22476;SDS011;11405;51.698;-0.292;2022-07-06T12:16:08;0.95;;;0.47;;
22476;SDS011;11405;51.698;-0.292;2022-07-06T12:18:41;1.27;;;0.40;;
22476;SDS011;11405;51.698;-0.292;2022-07-06T12:21:08;1.55;;;0.30;;
22476;SDS011;11405;51.698;-0.292;2022-07-06T12:23:41;0.35;;;0.20;;
22476;SDS011;11405;51.698;-0.292;2022-07-06T12:26:07;0.30;;;0.28;;
22476;SDS011;11405;51.698;-0.292;2022-07-06T12:28:33;0.20;;;0.20;;
22476;SDS011;11405;51.698;-0.292;2022-07-06T12:31:01;1.88;;;0.30;;
22476;SDS011;11405;51.698;-0.292;2022-07-06T12:33:27;1.48;;;0.60;;
22476;SDS011;11405;51.698;-0.292;2022-07-06T12:35:53;6.10;;;0.40;;
22476;SDS011;11405;51.698;-0.292;2022-07-06T12:38:23;5.10;;;0.98;;
22476;SDS011;11405;51.698;-0.292;2022-07-06T12:40:51;2.67;;;0.28;;
22476;SDS011;11405;51.698;-0.292;2022-07-06T12:43:40;1.67;;;0.60;;
22476;SDS011;11405;51.698;-0.292;2022-07-06T12:48:54;1.98;;;0.60;;
22476;SDS011;11405;51.698;-0.292;2022-07-06T12:51:20;4.68;;;0.50;;
22476;SDS011;11405;51.698;-0.292;2022-07-06T12:53:46;0.70;;;0.60;;
22476;SDS011;11405;51.698;-0.292;2022-07-06T12:56:12;3.20;;;0.30;;
22476;SDS011;11405;51.698;-0.292;2022-07-06T12:58:38;1.88;;;0.60;;
22476;SDS011;11405;51.698;-0.292;2022-07-06T13:01:05;0.77;;;0.30;;
22476;SDS011;11405;51.698;-0.292;2022-07-06T13:03:37;1.35;;;0.75;;
22476;SDS011;11405;51.698;-0.292;2022-07-06T13:06:04;2.15;;;0.30;;
22476;SDS011;11405;51.698;-0.292;2022-07-06T13:08:30;0.50;;;0.32;;
22476;SDS011;11405;51.698;-0.292;2022-07-06T13:10:56;1.60;;;0.57;;
22476;SDS011;11405;51.698;-0.292;2022-07-06T13:13:22;0.30;;;0.25;;
22476;SDS011;11405;51.698;-0.292;2022-07-06T13:15:51;0.95;;;0.63;;
22476;SDS011;11405;51.698;-0.292;2022-07-06T13:18:17;1.88;;;0.30;;
22476;SDS011;11405;51.698;-0.292;2022-07-06T13:20:44;0.85;;;0.30;;
22476;SDS011;11405;51.698;-0.292;2022-07-06T13:23:10;1.90;;;0.30;;
22476;SDS011;11405;51.698;-0.292;2022-07-06T13:25:36;1.65;;;0.57;;
22476;SDS011;11405;51.698;-0.292;2022-07-06T13:28:02;1.63;;;0.30;;
22476;SDS011;11405;51.698;-0.292;2022-07-06T13:30:28;2.90;;;0.40;;
22476;SDS011;11405;51.698;-0.292;2022-07-06T13:32:54;0.35;;;0.30;;
22476;SDS011;11405;51.698;-0.292;2022-07-06T13:35:21;0.28;;;0.20;;
22476;SDS011;11405;51.698;-0.292;2022-07-06T13:37:47;0.75;;;0.63;;
22476;SDS011;11405;51.698;-0.292;2022-07-06T13:40:15;0.65;;;0.32;;
22476;SDS011;11405;51.698;-0.292;2022-07-06T13:42:41;1.80;;;0.38;;
22476;SDS011;11405;51.698;-0.292;2022-07-06T13:45:07;1.83;;;0.40;;
22476;SDS011;11405;51.698;-0.292;2022-07-06T13:47:34;0.65;;;0.40;;
22476;SDS011;11405;51.698;-0.292;2022-07-06T13:50:00;2.33;;;0.43;;
22476;SDS011;11405;51.698;-0.292;2022-07-06T13:52:26;0.45;;;0.40;;
22476;SDS011;11405;51.698;-0.292;2022-07-06T13:54:53;2.75;;;0.30;;
22476;SDS011;11405;51.698;-0.292;2022-07-06T13:57:19;1.95;;;0.40;;
22476;SDS011;11405;51.698;-0.292;2022-07-06T13:59:45;0.75;;;0.22;;
22476;SDS011;11405;51.698;-0.292;2022-07-06T14:02:11;1.08;;;0.30;;
22476;SDS011;11405;51.698;-0.292;2022-07-06T14:04:37;0.85;;;0.30;;
22476;SDS011;11405;51.698;-0.292;2022-07-06T14:07:04;0.43;;;0.35;;
22476;SDS011;11405;51.698;-0.292;2022-07-06T14:09:30;3.15;;;0.30;;
22476;SDS011;11405;51.698;-0.292;2022-07-06T14:11:56;0.57;;;0.45;;
22476;SDS011;11405;51.698;-0.292;2022-07-06T14:14:22;0.57;;;0.30;;
22476;SDS011;11405;51.698;-0.292;2022-07-06T14:16:48;0.35;;;0.30;;
22476;SDS011;11405;51.698;-0.292;2022-07-06T14:19:16;2.00;;;0.20;;
22476;SDS011;11405;51.698;-0.292;2022-07-06T14:21:42;0.40;;;0.20;;
22476;SDS011;11405;51.698;-0.292;2022-07-06T14:24:09;0.90;;;0.22;;
22476;SDS011;11405;51.698;-0.292;2022-07-06T14:26:36;1.00;;;0.20;;
22476;SDS011;11405;51.698;-0.292;2022-07-06T14:29:02;0.35;;;0.20;;
22476;SDS011;11405;51.698;-0.292;2022-07-06T14:31:28;0.90;;;0.30;;
22476;SDS011;11405;51.698;-0.292;2022-07-06T14:33:54;0.15;;;0.15;;
22476;SDS011;11405;51.698;-0.292;2022-07-06T14:36:20;0.50;;;0.28;;
22476;SDS011;11405;51.698;-0.292;2022-07-06T14:38:46;3.15;;;0.40;;
22476;SDS011;11405;51.698;-0.292;2022-07-06T14:41:12;0.30;;;0.30;;
22476;SDS011;11405;51.698;-0.292;2022-07-06T14:43:39;0.30;;;0.30;;
22476;SDS011;11405;51.698;-0.292;2022-07-06T14:46:05;0.20;;;0.20;;
22476;SDS011;11405;51.698;-0.292;2022-07-06T14:48:31;0.30;;;0.30;;
22476;SDS011;11405;51.698;-0.292;2022-07-06T14:50:57;1.88;;;0.40;;
22476;SDS011;11405;51.698;-0.292;2022-07-06T14:53:23;0.45;;;0.30;;
22476;SDS011;11405;51.698;-0.292;2022-07-06T14:55:49;0.32;;;0.25;;
22476;SDS011;11405;51.698;-0.292;2022-07-06T14:58:15;0.20;;;0.20;;
22476;SDS011;11405;51.698;-0.292;2022-07-06T15:00:45;0.43;;;0.20;;
22476;SDS011;11405;51.698;-0.292;2022-07-06T15:03:11;0.20;;;0.10;;